Tropical Cyclones
[Index]
Main Index Home Page Stock Weather Photos Extreme Storms Discussion Storm News and Storm Chasing Reports Tropical Cyclones / Hurricanes / Typhoons Weather Data and Links Wild Fires / Bushfires Weather Observation Techniques Weather Picture Catalogue Tornado Pictures and Reports Stock Video Footage and DVDs for sale
Season 2002-2003 Tropical Cyclone EBULA Track Map
Season 2002-2003 Summaries (Operational Data): [AU] [SIO] [SPAC] [SH]
<<- Previous TC | 2002-2003 Season | Next TC ->>

click for intensity scale information  Lat/long Grid: Show Hide

 Date Labels: Show Hide

Operational Tropical Cyclone Data : JTWC Advisories

Name: EBULA
Number: 0309

07 Jan 2003 12:00 UTC to 13 Jan 2003 12:00 UTC

    date/time    lat    long     hPa   cat  kts
2003-01-07 12   10.7    70.2    1004         20          
2003-01-08 00   11.0    70.1                             
2003-01-08 06   11.0    70.5    1000         25          
2003-01-08 12   13.3    70.6    1001         25          
2003-01-08 18   14.1    70.5     998         30          
2003-01-09 00   14.4    70.8     996         30          
2003-01-09 06   14.9    71.0     986    1    45          
2003-01-09 12   15.2    71.1     984    2    50          
2003-01-09 18   16.7    71.0     980    2    55          
2003-01-10 00   17.5    70.7     980    2    55          
2003-01-10 06   19.0    70.4     975    2    60          
2003-01-10 12   20.2    69.7     975    2    60          
2003-01-10 18   21.6    69.6     975    2    60          
2003-01-11 00   23.6    69.3     978    2    55          
2003-01-11 06   24.1    69.2     980    2    50          
2003-01-11 12   25.8    69.8     984    2    50          
2003-01-11 18   26.3    70.5     986    2    50          
2003-01-12 00   27.5    70.6     988    1    45          
2003-01-12 06   28.1    71.8     993    1    40          
2003-01-12 12   28.3    73.0     995    1    40          
2003-01-12 18   28.3    73.8     998    1    40          
2003-01-13 00   28.3    74.1    1000    1    35          
2003-01-13 06   28.9    74.3    1000    1    35          
2003-01-13 12   29.7    74.7    1000         30          
Winds are 10-min average.

Tropical cyclone tracks developed by Michael Bath using operational warnings and advisories and Google Maps.


[Australian Severe Weather index] [Copyright Notice] [Email Contacts] [Search This Site] [Privacy Policy]
Document: tropical_cyclone_ebula.htm Updated: 2 May 2017